Time;durP1;ratioP1;P1;durP2;ratioP2;P2;SDS_P1;SDS_P2;PMS_P1;PMS_P2;Temp;Humidity;BMP_temperature;BMP_pressure;BME280_temperature;BME280_humidity;BME280_pressure;Samples;Min_cycle;Max_cycle;Signal;HPM_P1;HPM_P2
2022/04/17 00:00:13;;;;;;;0.30;0.13;;;;;;;7.66;62.54;101663.88;5027710;28;20451;-55
2022/04/17 00:02:40;;;;;;;0.30;0.20;;;;;;;7.57;62.39;101671.78;5024953;28;20500;-55
2022/04/17 00:05:08;;;;;;;0.30;0.20;;;;;;;7.50;63.24;101668.19;5040179;28;20826;-55
2022/04/17 00:07:35;;;;;;;0.30;0.20;;;;;;;7.45;64.22;101659.34;5043493;28;20471;-55
2022/04/17 00:10:02;;;;;;;0.30;0.20;;;;;;;7.29;64.40;101668.94;5024286;28;20478;-55
2022/04/17 00:12:29;;;;;;;0.97;0.93;;;;;;;7.16;65.30;101651.22;5024326;28;21081;-54
2022/04/17 00:14:56;;;;;;;1.43;0.80;;;;;;;7.20;64.73;101654.78;5034664;28;20447;-54
2022/04/17 00:17:23;;;;;;;0.30;0.20;;;;;;;7.13;65.48;101652.09;5039369;28;20471;-55
2022/04/17 00:19:49;;;;;;;0.40;0.33;;;;;;;7.05;65.80;101645.84;5023019;28;20829;-54
2022/04/17 00:22:16;;;;;;;0.30;0.20;;;;;;;7.07;66.04;101644.09;5024437;28;20539;-54
2022/04/17 00:24:43;;;;;;;0.30;0.20;;;;;;;6.97;66.42;101650.19;5032754;28;20503;-55
2022/04/17 00:27:10;;;;;;;0.30;0.20;;;;;;;7.07;65.68;101653.78;5042827;28;20992;-54
2022/04/17 00:29:37;;;;;;;1.70;1.17;;;;;;;7.05;65.68;101637.91;5029366;28;20457;-55
2022/04/17 00:32:05;;;;;;;0.30;0.20;;;;;;;7.02;66.74;101637.91;5036366;28;20452;-55
2022/04/17 00:34:31;;;;;;;0.30;0.20;;;;;;;6.93;66.45;101635.19;5027791;28;20469;-54
2022/04/17 00:36:59;;;;;;;0.30;0.20;;;;;;;6.83;67.42;101631.56;5040838;28;20490;-55
2022/04/17 00:39:26;;;;;;;0.30;0.20;;;;;;;6.84;67.33;101633.34;5026457;28;20455;-55
2022/04/17 00:41:54;;;;;;;0.30;0.20;;;;;;;6.81;68.02;101643.88;5023322;28;21109;-54
2022/04/17 00:44:20;;;;;;;0.30;0.20;;;;;;;6.53;69.07;101641.88;5030716;28;20451;-55
2022/04/17 00:46:47;;;;;;;0.30;0.20;;;;;;;6.63;69.75;101646.38;5037164;28;20495;-55
2022/04/17 00:49:14;;;;;;;0.30;0.20;;;;;;;6.69;68.89;101633.19;5026960;28;20538;-55
2022/04/17 00:51:43;;;;;;;0.30;0.20;;;;;;;6.63;68.92;101634.91;5023783;28;20505;-55
2022/04/17 00:54:12;;;;;;;0.30;0.20;;;;;;;6.61;68.78;101640.19;5036254;28;20471;-54
2022/04/17 00:56:39;;;;;;;0.30;0.20;;;;;;;6.58;69.40;101628.69;5021493;28;20467;-54
2022/04/17 00:59:09;;;;;;;0.30;0.20;;;;;;;6.54;69.20;101625.13;5026199;28;20453;-55
2022/04/17 01:01:37;;;;;;;0.40;0.27;;;;;;;6.54;69.12;101618.09;5030698;28;20456;-55
2022/04/17 01:04:06;;;;;;;0.30;0.20;;;;;;;6.59;69.77;101615.53;5029678;28;20467;-55
2022/04/17 01:06:33;;;;;;;0.30;0.20;;;;;;;6.38;69.97;101623.22;5023926;28;20447;-54
2022/04/17 01:09:01;;;;;;;0.30;0.20;;;;;;;6.39;70.98;101622.34;5025628;28;20957;-55
2022/04/17 01:11:27;;;;;;;0.30;0.20;;;;;;;6.12;71.87;101621.19;5023246;28;20482;-54
2022/04/17 01:13:55;;;;;;;0.30;0.20;;;;;;;6.21;72.16;101623.06;5024519;28;20812;-54
2022/04/17 01:16:23;;;;;;;0.30;0.10;;;;;;;6.18;71.29;101618.63;5030797;28;20471;-55
2022/04/17 01:18:57;;;;;;;0.30;0.20;;;;;;;6.28;70.33;101613.44;5029757;28;21118;-55
2022/04/17 01:21:24;;;;;;;0.30;0.10;;;;;;;6.21;70.80;101610.75;5040342;28;20475;-55
2022/04/17 01:26:58;;;;;;;0.30;0.20;;;;;;;6.33;69.87;101614.38;5033550;28;20538;-55
2022/04/17 01:29:34;;;;;;;0.30;0.20;;;;;;;6.21;71.06;101617.78;5017285;28;20484;-55
2022/04/17 01:32:04;;;;;;;0.30;0.20;;;;;;;6.10;71.27;101614.13;5030085;28;20448;-54
2022/04/17 01:34:31;;;;;;;0.30;0.17;;;;;;;6.01;72.41;101619.28;5026909;28;20448;-55
2022/04/17 01:36:58;;;;;;;0.30;0.20;;;;;;;6.00;72.95;101607.84;5053039;28;20475;-55
2022/04/17 01:39:25;;;;;;;0.30;0.20;;;;;;;6.03;72.95;101609.63;5028831;28;20483;-55
2022/04/17 01:41:53;;;;;;;0.30;0.20;;;;;;;5.98;72.96;101614.88;5022517;28;20937;-55
2022/04/17 01:44:20;;;;;;;0.30;0.10;;;;;;;5.91;73.07;101608.66;5034383;28;20450;-55
2022/04/17 01:46:47;;;;;;;0.30;0.20;;;;;;;6.00;73.07;101614.88;5048217;28;20827;-55
2022/04/17 01:49:15;;;;;;;0.30;0.20;;;;;;;6.13;71.11;101614.16;5034003;28;20542;-54
2022/04/17 01:51:44;;;;;;;0.30;0.20;;;;;;;6.10;72.13;101612.38;5027547;28;20522;-55
2022/04/17 01:54:15;;;;;;;0.30;0.20;;;;;;;6.13;71.62;101609.75;5021864;28;20519;-54
2022/04/17 01:56:43;;;;;;;0.30;0.20;;;;;;;6.11;72.33;101618.53;5044152;28;20502;-54
2022/04/17 01:59:11;;;;;;;0.30;0.20;;;;;;;6.03;73.07;101621.13;5032706;28;20448;-52
2022/04/17 02:01:38;;;;;;;0.30;0.20;;;;;;;6.11;73.12;101616.78;5024110;28;20511;-52
2022/04/17 02:04:06;;;;;;;0.30;0.10;;;;;;;6.02;73.41;101606.13;5023018;28;20482;-52
2022/04/17 02:06:34;;;;;;;0.30;0.20;;;;;;;6.04;73.07;101603.53;5040945;28;20458;-52
2022/04/17 02:09:03;;;;;;;0.30;0.10;;;;;;;5.67;74.74;101602.16;5037443;28;20451;-52
2022/04/17 02:11:29;;;;;;;0.30;0.20;;;;;;;5.73;74.80;101603.09;5030498;28;20460;-52
2022/04/17 02:13:57;;;;;;;0.30;0.30;;;;;;;5.74;74.31;101598.72;5028682;28;20448;-52
2022/04/17 02:16:24;;;;;;;0.30;0.20;;;;;;;5.80;74.14;101593.53;5029484;28;20446;-52
2022/04/17 02:18:52;;;;;;;0.30;0.20;;;;;;;5.71;74.46;101586.38;5036081;28;20455;-52
2022/04/17 02:21:19;;;;;;;0.30;0.20;;;;;;;5.57;74.68;101582.69;5026466;28;20540;-52
2022/04/17 02:23:46;;;;;;;0.30;0.20;;;;;;;5.74;75.04;101590.81;5027722;28;20520;-52
2022/04/17 02:26:18;;;;;;;0.30;0.20;;;;;;;5.80;74.27;101588.25;5026108;28;20491;-52
2022/04/17 02:28:46;;;;;;;0.30;0.20;;;;;;;6.00;73.17;101580.59;5034629;28;20490;-52
2022/04/17 02:31:13;;;;;;;0.30;0.20;;;;;;;5.86;73.44;101577.75;5024220;28;20463;-52
2022/04/17 02:33:40;;;;;;;0.30;0.20;;;;;;;6.21;73.03;101570.25;5040494;28;20970;-52
2022/04/17 02:36:06;;;;;;;0.30;0.20;;;;;;;6.14;72.61;101568.41;5038443;28;20488;-54
2022/04/17 02:38:33;;;;;;;0.30;0.20;;;;;;;6.18;71.87;101563.19;5037286;28;20529;-54
2022/04/17 02:41:01;;;;;;;0.40;0.30;;;;;;;6.10;72.77;101566.63;5020651;28;20460;-54
2022/04/17 02:43:27;;;;;;;0.30;0.10;;;;;;;6.31;71.63;101558.03;5019541;28;20484;-54
2022/04/17 02:45:54;;;;;;;0.30;0.10;;;;;;;6.31;72.19;101558.94;5034608;28;20481;-54
2022/04/17 02:48:21;;;;;;;0.30;0.20;;;;;;;6.19;72.69;101562.31;5035047;28;20486;-53
2022/04/17 02:50:48;;;;;;;0.30;0.20;;;;;;;6.26;71.88;101562.38;5018288;28;20467;-53
2022/04/17 02:53:16;;;;;;;0.30;0.20;;;;;;;6.37;70.84;101560.72;5044228;28;20448;-53
2022/04/17 02:55:44;;;;;;;0.30;0.20;;;;;;;5.98;73.40;101562.09;5023246;28;20453;-53
2022/04/17 02:58:11;;;;;;;0.30;0.20;;;;;;;6.04;73.79;101559.53;5022484;28;20476;-53
2022/04/17 03:05:36;;;;;;;0.30;0.20;;;;;;;6.22;73.00;101556.19;5016629;28;20957;-53
2022/04/17 03:06:12;;;;;;;0.30;0.20;;;;;;;6.03;73.56;101557.78;5026757;28;20502;-53
2022/04/17 03:08:40;;;;;;;0.30;0.20;;;;;;;5.80;73.79;101564.50;5028621;28;20542;-53
2022/04/17 03:11:06;;;;;;;0.30;0.20;;;;;;;5.76;75.21;101558.31;5033066;28;20539;-53
2022/04/17 03:13:33;;;;;;;0.30;0.10;;;;;;;5.67;75.34;101555.56;5031094;28;20459;-53
2022/04/17 03:16:00;;;;;;;0.30;0.20;;;;;;;5.58;75.35;101556.31;5030744;28;20451;-53
2022/04/17 03:18:27;;;;;;;0.30;0.20;;;;;;;5.60;75.77;101556.34;5031719;28;20476;-53
2022/04/17 03:20:54;;;;;;;0.30;0.20;;;;;;;5.44;76.05;101557.91;5040613;28;20521;-53
2022/04/17 03:23:20;;;;;;;0.30;0.20;;;;;;;5.49;76.13;101553.59;5038095;28;20491;-53
2022/04/17 03:25:47;;;;;;;0.30;0.20;;;;;;;5.51;75.54;101556.25;5037875;28;20493;-53
2022/04/17 03:28:13;;;;;;;0.30;0.20;;;;;;;5.59;75.27;101552.81;5038928;28;20471;-53
2022/04/17 03:30:40;;;;;;;0.30;0.20;;;;;;;5.57;75.47;101554.56;5030081;28;20464;-53
2022/04/17 03:33:07;;;;;;;0.30;0.20;;;;;;;5.60;75.01;101553.72;5030998;28;20455;-53
2022/04/17 03:35:34;;;;;;;0.30;0.20;;;;;;;5.55;76.25;101555.41;5037646;28;20460;-53
2022/04/17 03:38:00;;;;;;;0.30;0.20;;;;;;;5.65;75.94;101550.28;5047911;28;20508;-53
2022/04/17 03:40:27;;;;;;;0.30;0.20;;;;;;;5.60;75.52;101545.78;5025789;28;20447;-53
2022/04/17 03:42:53;;;;;;;0.30;0.20;;;;;;;5.64;75.83;101532.69;5033515;28;20505;-53
2022/04/17 03:45:20;;;;;;;0.30;0.10;;;;;;;5.62;75.91;101539.69;5027913;28;20544;-53
2022/04/17 03:47:47;;;;;;;0.30;0.20;;;;;;;5.50;75.46;101539.53;5023465;28;20471;-53
2022/04/17 03:50:13;;;;;;;0.30;0.20;;;;;;;5.58;75.89;101539.63;5024819;28;20526;-53
2022/04/17 03:52:45;;;;;;;0.30;0.20;;;;;;;5.58;75.82;101539.63;5031737;28;20493;-53
2022/04/17 03:55:12;;;;;;;0.30;0.20;;;;;;;5.56;75.98;101542.25;5023335;28;20468;-53
2022/04/17 03:57:39;;;;;;;0.30;0.10;;;;;;;5.52;76.45;101529.00;5045399;28;20890;-53
2022/04/17 04:00:08;;;;;;;0.30;0.20;;;;;;;5.39;77.06;101535.88;5037924;28;20459;-53
2022/04/17 04:02:34;;;;;;;0.30;0.20;;;;;;;5.35;77.01;101536.72;5036888;28;20451;-53
2022/04/17 04:05:02;;;;;;;0.30;0.20;;;;;;;5.33;76.82;101533.16;5027903;28;20483;-53
2022/04/17 04:07:28;;;;;;;0.30;0.20;;;;;;;5.29;77.86;101534.00;5042201;28;20575;-53
2022/04/17 04:09:55;;;;;;;0.30;0.10;;;;;;;5.32;77.56;101532.25;5024333;28;20451;-53
2022/04/17 04:12:21;;;;;;;0.30;0.20;;;;;;;5.28;77.60;101525.19;5034485;28;20526;-53
2022/04/17 04:14:54;;;;;;;0.30;0.20;;;;;;;5.34;77.69;101527.94;5035040;28;20538;-53
2022/04/17 04:17:20;;;;;;;0.30;0.20;;;;;;;5.36;78.00;101525.31;5035642;28;20475;-53
2022/04/17 04:19:47;;;;;;;0.30;0.17;;;;;;;5.39;77.44;101517.44;5034590;28;20844;-53
2022/04/17 04:22:13;;;;;;;0.30;0.20;;;;;;;5.46;77.18;101523.66;5025343;28;20876;-53
2022/04/17 04:24:40;;;;;;;0.30;0.20;;;;;;;5.44;76.83;101528.03;5034028;28;20483;-53
2022/04/17 04:29:52;;;;;;;0.30;0.20;;;;;;;5.33;77.95;101538.44;5025519;28;20456;-53
2022/04/17 04:32:20;;;;;;;0.30;0.20;;;;;;;5.32;77.79;101531.38;5033924;28;20873;-53
2022/04/17 04:34:47;;;;;;;0.30;0.10;;;;;;;5.27;78.35;101530.44;5036374;28;20456;-53
2022/04/17 04:37:14;;;;;;;0.30;0.20;;;;;;;5.27;78.12;101538.34;5048516;28;20483;-53
2022/04/17 04:39:41;;;;;;;0.30;0.20;;;;;;;5.34;78.11;101520.03;5030064;28;20867;-53
2022/04/17 04:42:08;;;;;;;0.30;0.10;;;;;;;5.46;78.03;101531.56;5022402;28;20487;-53
2022/04/17 04:44:35;;;;;;;0.30;0.20;;;;;;;5.54;77.73;101530.78;5046674;28;20841;-53
2022/04/17 04:47:02;;;;;;;0.30;0.20;;;;;;;5.67;76.99;101533.59;5048013;28;20468;-54
2022/04/17 04:49:31;;;;;;;0.30;0.20;;;;;;;5.54;77.00;101543.97;5035283;28;20520;-53
2022/04/17 04:52:02;;;;;;;0.30;0.20;;;;;;;5.42;78.17;101549.09;5030745;28;20452;-53
2022/04/17 04:54:29;;;;;;;0.30;0.17;;;;;;;5.39;77.84;101541.16;5042841;28;20479;-53
2022/04/17 04:56:56;;;;;;;0.30;0.10;;;;;;;5.48;77.79;101528.09;5039635;28;20471;-53
2022/04/17 04:59:23;;;;;;;0.30;0.20;;;;;;;5.44;78.02;101538.56;5025994;28;20457;-53
2022/04/17 05:01:51;;;;;;;0.30;0.20;;;;;;;5.43;78.64;101540.31;5047288;28;20954;-53
2022/04/17 05:04:20;;;;;;;0.77;0.60;;;;;;;5.45;78.43;101543.84;5030664;28;20479;-53
2022/04/17 05:06:47;;;;;;;0.30;0.20;;;;;;;5.50;77.62;101542.19;5028578;28;20463;-53
2022/04/17 05:09:13;;;;;;;0.30;0.10;;;;;;;5.53;78.25;101547.50;5036865;28;20455;-53
2022/04/17 05:11:40;;;;;;;0.30;0.20;;;;;;;5.62;77.86;101544.09;5028969;28;20456;-53
2022/04/17 05:14:09;;;;;;;0.30;0.20;;;;;;;5.89;76.83;101543.47;5035860;28;20470;-53
2022/04/17 05:16:36;;;;;;;0.30;0.20;;;;;;;6.47;74.90;101539.69;5043767;28;20484;-53
2022/04/17 05:19:20;;;;;;;0.30;0.20;;;;;;;7.25;73.54;101528.75;5033546;28;20823;-53
2022/04/17 05:21:48;;;;;;;0.30;0.20;;;;;;;7.93;67.89;101531.63;5025668;28;20448;-53
2022/04/17 05:24:16;;;;;;;0.30;0.20;;;;;;;8.32;66.94;101528.16;5022222;28;21083;-54
2022/04/17 05:26:43;;;;;;;0.30;0.20;;;;;;;8.44;66.71;101532.63;5027822;28;20557;-53
2022/04/17 05:29:10;;;;;;;0.30;0.20;;;;;;;8.55;65.61;101532.63;5044773;28;20459;-53
2022/04/17 05:31:36;;;;;;;0.30;0.20;;;;;;;8.96;64.45;101544.97;5036026;28;20456;-54
2022/04/17 05:34:03;;;;;;;0.30;0.20;;;;;;;8.66;65.01;101538.81;5035250;28;20459;-53
2022/04/17 05:36:31;;;;;;;0.30;0.20;;;;;;;8.81;64.23;101545.88;5033653;28;20463;-53
2022/04/17 05:38:57;;;;;;;0.30;0.10;;;;;;;9.26;63.90;101534.28;5033419;28;20835;-54
2022/04/17 05:41:29;;;;;;;0.30;0.20;;;;;;;9.18;63.63;101536.97;5032891;28;20478;-53
2022/04/17 05:43:57;;;;;;;0.30;0.20;;;;;;;9.65;62.06;101542.97;5035568;28;20488;-53
2022/04/17 05:46:27;;;;;;;0.30;0.20;;;;;;;9.65;62.12;101532.34;5034596;28;20452;-53
2022/04/17 05:48:53;;;;;;;0.90;0.90;;;;;;;9.65;62.64;101551.81;5022908;28;20517;-53
2022/04/17 05:51:20;;;;;;;0.30;0.20;;;;;;;9.56;62.55;101541.22;5035005;28;20447;-53
2022/04/17 05:53:47;;;;;;;0.30;0.20;;;;;;;9.57;62.24;101543.00;5022343;28;20444;-53
2022/04/17 05:56:15;;;;;;;0.30;0.20;;;;;;;9.22;63.35;101543.13;5029539;28;20482;-53
2022/04/17 05:58:41;;;;;;;0.30;0.20;;;;;;;9.15;63.25;101546.69;5020143;28;20480;-52
2022/04/17 06:01:08;;;;;;;0.30;0.20;;;;;;;9.17;64.37;101542.25;5016897;28;20519;-53
2022/04/17 06:03:34;;;;;;;0.30;0.20;;;;;;;8.90;65.95;101551.13;5039270;28;20851;-53
2022/04/17 06:06:01;;;;;;;0.50;0.40;;;;;;;8.80;66.26;101558.25;5025756;28;20456;-53
2022/04/17 06:08:28;;;;;;;0.30;0.20;;;;;;;8.86;66.28;101562.63;5017591;28;20526;-53
2022/04/17 06:10:55;;;;;;;0.30;0.20;;;;;;;8.80;66.78;101566.19;5028634;28;20456;-53
2022/04/17 06:13:21;;;;;;;0.30;0.20;;;;;;;9.15;65.41;101563.47;5036839;28;20448;-53
2022/04/17 06:15:48;;;;;;;0.30;0.20;;;;;;;9.13;65.71;101573.22;5027547;28;20456;-54
2022/04/17 06:18:15;;;;;;;0.30;0.20;;;;;;;9.31;65.15;101568.72;5023661;28;20521;-53
2022/04/17 06:20:42;;;;;;;0.30;0.20;;;;;;;9.18;64.94;101570.53;5041876;28;20462;-54
2022/04/17 06:23:08;;;;;;;0.30;0.20;;;;;;;9.24;64.82;101572.31;5040236;28;20980;-54
2022/04/17 06:25:38;;;;;;;0.30;0.20;;;;;;;9.08;65.38;101567.03;5024399;28;20538;-55
2022/04/17 06:28:05;;;;;;;0.30;0.20;;;;;;;9.26;65.41;101562.56;5038082;28;20538;-54
2022/04/17 06:30:32;;;;;;;0.30;0.20;;;;;;;8.95;65.58;101551.16;5042697;28;20524;-54
2022/04/17 06:32:58;;;;;;;0.30;0.20;;;;;;;9.01;65.54;101552.00;5030298;28;20456;-54
2022/04/17 06:35:25;;;;;;;0.30;0.20;;;;;;;9.03;66.65;101547.56;5029182;28;21534;-54
2022/04/17 06:37:54;;;;;;;0.30;0.20;;;;;;;9.04;65.49;101551.13;5017011;28;20472;-54
2022/04/17 06:40:25;;;;;;;0.30;0.20;;;;;;;8.49;66.97;101546.75;5036597;28;20461;-53
2022/04/17 06:42:55;;;;;;;0.30;0.20;;;;;;;8.87;67.07;101545.84;5025454;28;20475;-54
2022/04/17 06:45:22;;;;;;;0.30;0.20;;;;;;;8.84;67.43;101544.09;5048515;28;20474;-54
2022/04/17 06:47:49;;;;;;;0.30;0.20;;;;;;;9.14;66.68;101547.56;5046667;28;21091;-54
2022/04/17 06:50:18;;;;;;;0.30;0.20;;;;;;;8.75;66.78;101546.72;5027314;28;20510;-54
2022/04/17 06:52:45;;;;;;;0.30;0.20;;;;;;;8.89;67.24;101541.41;5030998;28;20459;-54
2022/04/17 06:55:12;;;;;;;0.30;0.20;;;;;;;9.08;67.67;101532.56;5019168;28;20459;-54
2022/04/17 06:57:49;;;;;;;0.30;0.20;;;;;;;8.80;66.86;101528.19;5025723;28;20498;-54
2022/04/17 07:00:18;;;;;;;0.30;0.20;;;;;;;8.87;67.57;101532.59;5022500;28;20479;-54
2022/04/17 07:02:45;;;;;;;0.30;0.20;;;;;;;8.97;67.38;101528.16;5019017;28;20917;-54
2022/04/17 07:05:13;;;;;;;0.30;0.20;;;;;;;9.25;66.22;101528.97;5029396;28;20487;-54
2022/04/17 07:07:40;;;;;;;0.30;0.20;;;;;;;9.10;65.79;101530.78;5046125;28;20899;-54
2022/04/17 07:10:08;;;;;;;0.30;0.10;;;;;;;9.31;66.15;101529.81;5031279;28;20459;-54
2022/04/17 07:12:35;;;;;;;0.30;0.20;;;;;;;9.54;63.90;101520.91;5047656;28;20454;-54
2022/04/17 07:15:09;;;;;;;0.30;0.20;;;;;;;9.75;64.78;101518.16;5040549;28;20562;-54
2022/04/17 07:17:38;;;;;;;0.30;0.20;;;;;;;9.78;64.40;101518.13;5039308;28;20484;-54
2022/04/17 07:20:06;;;;;;;0.30;0.10;;;;;;;9.71;63.94;101511.06;5037603;28;20452;-53
2022/04/17 07:22:34;;;;;;;0.30;0.20;;;;;;;9.57;64.17;101499.63;5024612;28;20530;-53
2022/04/17 07:25:03;;;;;;;0.30;0.20;;;;;;;10.06;63.32;101502.91;5046192;28;20482;-53
2022/04/17 07:27:42;;;;;;;0.30;0.20;;;;;;;10.14;62.76;101501.06;5045431;28;20475;-53
2022/04/17 07:30:12;;;;;;;0.30;0.20;;;;;;;10.02;61.68;101496.72;5040806;28;20459;-53
2022/04/17 07:32:41;;;;;;;0.30;0.20;;;;;;;9.83;60.53;101500.38;5033649;28;20489;-53
2022/04/17 07:35:08;;;;;;;0.30;0.20;;;;;;;10.05;62.69;101495.81;5045735;28;21026;-53
2022/04/17 07:37:36;;;;;;;0.30;0.20;;;;;;;10.29;61.62;101493.03;5032194;28;20534;-53
2022/04/17 07:40:10;;;;;;;0.30;0.20;;;;;;;10.74;61.76;101490.84;5028175;28;20451;-53
2022/04/17 07:42:37;;;;;;;0.30;0.20;;;;;;;10.96;59.23;101483.50;5035162;28;20948;-54
2022/04/17 07:45:04;;;;;;;0.30;0.20;;;;;;;11.05;57.65;101491.38;5042215;28;20478;-54
2022/04/17 07:47:31;;;;;;;0.30;0.20;;;;;;;10.81;57.81;101487.22;5029551;28;20480;-54
2022/04/17 07:49:59;;;;;;;0.30;0.20;;;;;;;10.91;57.46;101501.31;5023330;28;20975;-54
2022/04/17 07:52:25;;;;;;;0.30;0.20;;;;;;;10.88;57.35;101486.25;5024768;28;20968;-54
2022/04/17 07:54:52;;;;;;;0.30;0.20;;;;;;;10.87;57.66;101492.47;5030954;28;20537;-53
2022/04/17 07:57:19;;;;;;;0.30;0.20;;;;;;;11.01;57.22;101486.13;5035907;28;20909;-53
2022/04/17 07:59:45;;;;;;;0.30;0.20;;;;;;;11.30;57.23;101478.69;5028174;28;20959;-53
2022/04/17 08:02:39;;;;;;;0.30;0.20;;;;;;;11.54;56.42;101467.72;5022427;28;20456;-53
2022/04/17 08:05:07;;;;;;;0.30;0.20;;;;;;;11.44;55.29;101467.84;5033062;28;20999;-53
2022/04/17 08:07:34;;;;;;;0.93;0.93;;;;;;;11.57;54.41;101472.13;5040671;28;20471;-54
2022/04/17 08:10:00;;;;;;;0.30;0.20;;;;;;;11.58;53.44;101465.88;5022684;28;20447;-54
2022/04/17 08:12:27;;;;;;;0.30;0.20;;;;;;;12.04;52.54;101457.25;5037792;28;20821;-54
2022/04/17 08:14:53;;;;;;;0.30;0.20;;;;;;;11.56;49.71;101457.94;5035840;28;20447;-53
2022/04/17 08:17:20;;;;;;;0.40;0.30;;;;;;;11.36;50.63;101453.75;5041641;28;20502;-54
2022/04/17 08:19:46;;;;;;;0.30;0.20;;;;;;;11.78;50.86;101452.28;5028195;28;20460;-53
2022/04/17 08:22:13;;;;;;;0.40;0.30;;;;;;;11.98;51.21;101452.03;5040625;28;20486;-53
2022/04/17 08:24:40;;;;;;;0.30;0.20;;;;;;;12.11;48.43;101457.13;5030328;28;20480;-53
2022/04/17 08:27:06;;;;;;;0.30;0.20;;;;;;;12.33;50.48;101454.97;5036114;28;20900;-53
2022/04/17 08:29:33;;;;;;;0.30;0.20;;;;;;;12.28;50.27;101446.19;5036728;28;20961;-53
2022/04/17 08:31:59;;;;;;;0.30;0.20;;;;;;;12.28;49.86;101456.84;5034245;28;20502;-54
2022/04/17 08:34:26;;;;;;;0.30;0.20;;;;;;;12.06;51.74;101459.00;5022946;28;20455;-54
2022/04/17 08:36:53;;;;;;;0.30;0.20;;;;;;;12.05;50.95;101449.22;5032015;28;20475;-54
2022/04/17 08:39:20;;;;;;;0.30;0.20;;;;;;;12.38;50.38;101457.59;5024166;28;20460;-54
2022/04/17 08:41:50;;;;;;;0.30;0.20;;;;;;;11.88;49.22;101450.41;5041912;28;20800;-54
2022/04/17 08:44:16;;;;;;;0.30;0.20;;;;;;;12.07;50.52;101450.09;5034606;28;20488;-54
2022/04/17 08:46:43;;;;;;;0.30;0.20;;;;;;;12.32;48.63;101449.66;5036481;28;20526;-54
2022/04/17 08:49:10;;;;;;;0.30;0.20;;;;;;;12.66;48.36;101448.19;5028666;28;20455;-53
2022/04/17 08:51:47;;;;;;;0.30;0.20;;;;;;;12.44;48.19;101437.00;5025768;28;20547;-53
2022/04/17 08:54:15;;;;;;;0.30;0.20;;;;;;;12.59;49.76;101451.84;5038355;28;20937;-53
2022/04/17 08:56:41;;;;;;;0.30;0.20;;;;;;;12.25;50.02;101445.38;5043883;28;20472;-53
2022/04/17 08:59:08;;;;;;;0.43;0.40;;;;;;;12.59;49.87;101446.50;5038695;28;20490;-53
2022/04/17 09:01:38;;;;;;;0.30;0.20;;;;;;;12.55;49.66;101431.47;5041921;28;20510;-53
2022/04/17 09:04:04;;;;;;;0.40;0.40;;;;;;;12.54;49.80;101440.41;5029480;28;20469;-53
2022/04/17 09:06:31;;;;;;;0.30;0.20;;;;;;;12.07;49.10;101436.78;5033616;28;20471;-53
2022/04/17 09:09:00;;;;;;;0.30;0.20;;;;;;;12.60;49.15;101440.28;5028253;28;20945;-53
2022/04/17 09:11:28;;;;;;;0.30;0.20;;;;;;;12.79;49.75;101437.28;5027601;28;20488;-53
2022/04/17 09:13:59;;;;;;;0.30;0.20;;;;;;;12.68;48.92;101425.00;5030213;28;20448;-53
2022/04/17 09:16:28;;;;;;;0.30;0.20;;;;;;;13.41;48.00;101435.13;5027074;28;20519;-53
2022/04/17 09:18:58;;;;;;;0.30;0.20;;;;;;;13.46;46.44;101430.59;5039215;28;20466;-53
2022/04/17 09:21:34;;;;;;;0.30;0.20;;;;;;;12.89;47.41;101437.06;5025851;28;20841;-53
2022/04/17 09:24:18;;;;;;;0.30;0.20;;;;;;;12.89;48.76;101429.06;5035307;28;20450;-54
2022/04/17 09:26:52;;;;;;;0.30;0.20;;;;;;;12.74;47.62;101426.66;5033221;28;20490;-54
2022/04/17 09:29:24;;;;;;;0.30;0.20;;;;;;;13.37;49.05;101420.97;5026431;28;20890;-54
2022/04/17 09:32:04;;;;;;;0.30;0.20;;;;;;;13.26;46.67;101425.66;5017633;28;20861;-53
2022/04/17 09:34:49;;;;;;;0.30;0.20;;;;;;;13.40;46.01;101414.69;5026242;28;20451;-54
2022/04/17 09:37:18;;;;;;;2.70;0.50;;;;;;;13.05;46.96;101421.63;5032361;28;20472;-54
2022/04/17 09:39:45;;;;;;;0.33;0.23;;;;;;;13.29;45.73;101413.16;5025467;28;20517;-53
2022/04/17 09:42:12;;;;;;;0.30;0.20;;;;;;;12.73;48.34;101414.25;5034728;28;20483;-53
2022/04/17 09:44:51;;;;;;;0.30;0.20;;;;;;;13.08;48.42;101405.53;5027952;28;20479;-53
2022/04/17 09:47:20;;;;;;;0.30;0.20;;;;;;;13.29;47.92;101393.53;5038125;28;20482;-53
2022/04/17 09:49:51;;;;;;;0.30;0.20;;;;;;;12.79;47.37;101391.91;5031686;28;20452;-53
2022/04/17 09:52:18;;;;;;;0.30;0.20;;;;;;;13.15;47.33;101395.59;5022068;28;20505;-53
2022/04/17 09:54:47;;;;;;;0.30;0.20;;;;;;;13.12;47.30;101393.00;5037040;28;20508;-54
2022/04/17 09:57:28;;;;;;;0.50;0.40;;;;;;;13.45;48.11;101391.44;5036309;28;20476;-54
2022/04/17 09:59:56;;;;;;;0.30;0.20;;;;;;;13.26;47.91;101386.47;5027561;28;20487;-54
2022/04/17 10:02:25;;;;;;;0.30;0.20;;;;;;;13.32;47.79;101386.38;5034722;28;20514;-53
2022/04/17 10:04:52;;;;;;;0.30;0.20;;;;;;;13.09;46.22;101380.59;5033043;28;20897;-53
2022/04/17 10:07:22;;;;;;;0.37;0.27;;;;;;;13.16;47.26;101368.91;5040736;28;20475;-53
2022/04/17 10:09:49;;;;;;;0.30;0.20;;;;;;;13.25;46.61;101375.84;5030949;28;20573;-54
2022/04/17 10:12:19;;;;;;;0.37;0.30;;;;;;;13.06;46.33;101372.66;5021764;28;20514;-54
2022/04/17 10:14:48;;;;;;;0.30;0.20;;;;;;;13.40;46.67;101367.47;5031667;28;20448;-51
2022/04/17 10:17:19;;;;;;;0.30;0.20;;;;;;;13.74;45.39;101356.88;5024254;28;20472;-54
2022/04/17 10:19:48;;;;;;;0.30;0.20;;;;;;;13.98;44.95;101362.53;5020997;28;20463;-54
2022/04/17 10:22:20;;;;;;;0.30;0.30;;;;;;;13.68;47.03;101353.47;5031898;28;21009;-54
2022/04/17 10:24:54;;;;;;;2.53;2.43;;;;;;;13.58;45.49;101352.84;5035727;28;20479;-54
2022/04/17 10:27:28;;;;;;;0.30;0.20;;;;;;;13.41;46.69;101334.50;5030566;28;20514;-53
2022/04/17 10:30:15;;;;;;;0.30;0.20;;;;;;;13.90;46.73;101342.22;5031840;28;20803;-54
2022/04/17 10:33:05;;;;;;;0.30;0.20;;;;;;;13.88;45.22;101333.38;5013407;28;20460;-53
2022/04/17 10:36:00;;;;;;;0.30;0.20;;;;;;;13.66;45.70;101324.13;5028793;28;20522;-53
2022/04/17 10:38:29;;;;;;;0.30;0.20;;;;;;;13.72;46.60;101326.66;5019796;28;20531;-54
2022/04/17 10:41:03;;;;;;;0.30;0.20;;;;;;;13.83;47.35;101313.88;5024325;28;20459;-54
2022/04/17 10:43:42;;;;;;;0.30;0.20;;;;;;;13.96;46.33;101319.78;5015627;28;20448;-54
2022/04/17 10:46:19;;;;;;;0.30;0.20;;;;;;;13.92;46.42;101310.97;5037203;28;20482;-54
2022/04/17 10:48:47;;;;;;;0.50;0.50;;;;;;;14.08;44.78;101311.44;5033861;28;20451;-54
2022/04/17 10:51:16;;;;;;;0.30;0.20;;;;;;;14.21;44.33;101314.69;5031800;28;20487;-54
2022/04/17 10:54:14;;;;;;;0.57;0.57;;;;;;;14.24;44.19;101306.56;5037913;28;21010;-55
2022/04/17 10:56:59;;;;;;;0.30;0.20;;;;;;;14.63;43.37;101293.91;5027833;28;20984;-55
2022/04/17 10:59:30;;;;;;;0.30;0.20;;;;;;;14.56;42.91;101295.00;5019461;28;20448;-55
2022/04/17 11:02:04;;;;;;;0.30;0.20;;;;;;;14.55;43.02;101303.09;5037023;28;20448;-55
2022/04/17 11:04:42;;;;;;;0.30;0.30;;;;;;;14.46;40.75;101288.16;5030576;28;20483;-55
2022/04/17 11:07:11;;;;;;;0.30;0.20;;;;;;;14.49;41.78;101277.38;5032457;28;20476;-55
2022/04/17 11:09:43;;;;;;;0.30;0.20;;;;;;;14.47;43.02;101276.53;5030741;28;20452;-55
2022/04/17 11:12:15;;;;;;;0.40;0.30;;;;;;;14.46;43.90;101278.34;5020119;28;20448;-55
2022/04/17 11:14:52;;;;;;;0.30;0.20;;;;;;;14.21;41.92;101274.56;5030840;28;20440;-54
2022/04/17 11:17:21;;;;;;;0.40;0.40;;;;;;;14.54;42.74;101270.09;5030414;28;20521;-55
2022/04/17 11:19:48;;;;;;;0.30;0.20;;;;;;;14.99;41.34;101266.97;5037559;28;20848;-55
2022/04/17 11:22:17;;;;;;;0.30;0.20;;;;;;;14.84;40.72;101260.28;5036039;28;20478;-55
2022/04/17 11:25:03;;;;;;;0.40;0.40;;;;;;;14.77;42.64;101264.94;5030966;28;20538;-55
2022/04/17 11:27:38;;;;;;;0.30;0.20;;;;;;;14.76;41.96;101260.50;5036261;28;20474;-55
2022/04/17 11:30:06;;;;;;;0.30;0.20;;;;;;;14.89;42.25;101252.09;5035466;28;20458;-55
2022/04/17 11:32:33;;;;;;;0.50;0.40;;;;;;;14.36;41.59;101263.44;5037879;28;20508;-53
2022/04/17 11:35:04;;;;;;;0.40;0.30;;;;;;;14.62;40.56;101257.38;5042549;28;20467;-55
2022/04/17 11:37:32;;;;;;;0.30;0.20;;;;;;;14.78;40.59;101252.41;5015364;28;20477;-55
2022/04/17 11:40:09;;;;;;;0.30;0.20;;;;;;;14.84;41.25;101243.34;5028561;28;20443;-55
2022/04/17 11:42:45;;;;;;;0.93;0.93;;;;;;;15.01;43.18;101239.22;5025521;28;21006;-55
2022/04/17 11:45:14;;;;;;;0.30;0.20;;;;;;;14.86;42.59;101233.47;5031984;28;21072;-55